Terminal Aerodrome Forecast
Issued by NWS Riverton, WY

Home | Current Version | Previous Version | Text Only | Print | Product List | Glossary On
Versions: 1 2 3 4 5 6 7 8 9 10 11 12 13 14
000
FTUS45 KRIW 280337 AAA
TAFRIW
TAF AMD
KRIW 280337Z 2804/2824 28020G35KT P6SM FEW120
     FM280500 31012G20KT P6SM SKC
     FM281500 31017G27KT P6SM SKC=

USA.gov is the U.S. government's official web portal to all federal, state and local government web resources and services.